sensor_id;sensor_type;location;lat;lon;timestamp;pressure;altitude;pressure_sealevel;temperature;humidity
53635;BME280;39542;-34.932;138.594;2022-11-13T00:00:15;99553.21;;;19.96;65.54
53635;BME280;39542;-34.932;138.594;2022-11-13T00:00:50;99554.45;;;20.01;65.43
53635;BME280;39542;-34.932;138.594;2022-11-13T00:01:25;99554.89;;;19.98;65.50
53635;BME280;39542;-34.932;138.594;2022-11-13T00:01:59;99555.26;;;20.01;65.50
53635;BME280;39542;-34.932;138.594;2022-11-13T00:02:34;99556.87;;;19.98;65.56
53635;BME280;39542;-34.932;138.594;2022-11-13T00:03:09;99556.99;;;19.97;65.54
53635;BME280;39542;-34.932;138.594;2022-11-13T00:03:45;99556.90;;;20.04;65.45
53635;BME280;39542;-34.932;138.594;2022-11-13T00:04:21;99555.77;;;20.08;65.40
53635;BME280;39542;-34.932;138.594;2022-11-13T00:04:56;99555.90;;;20.09;65.37
53635;BME280;39542;-34.932;138.594;2022-11-13T00:05:30;99555.58;;;20.30;64.81
53635;BME280;39542;-34.932;138.594;2022-11-13T00:06:05;99558.24;;;20.24;65.00
53635;BME280;39542;-34.932;138.594;2022-11-13T00:06:39;99557.29;;;20.27;65.00
53635;BME280;39542;-34.932;138.594;2022-11-13T00:07:13;99553.34;;;20.34;64.77
53635;BME280;39542;-34.932;138.594;2022-11-13T00:07:47;99555.04;;;20.28;64.78
53635;BME280;39542;-34.932;138.594;2022-11-13T00:08:22;99550.98;;;20.26;64.83
53635;BME280;39542;-34.932;138.594;2022-11-13T00:08:57;99553.11;;;20.26;64.90
53635;BME280;39542;-34.932;138.594;2022-11-13T00:09:32;99553.57;;;20.30;64.83
53635;BME280;39542;-34.932;138.594;2022-11-13T00:10:07;99551.13;;;20.33;64.73
53635;BME280;39542;-34.932;138.594;2022-11-13T00:10:43;99554.54;;;20.33;64.77
53635;BME280;39542;-34.932;138.594;2022-11-13T00:11:19;99551.34;;;20.39;64.65
53635;BME280;39542;-34.932;138.594;2022-11-13T00:11:54;99552.02;;;20.39;64.67
53635;BME280;39542;-34.932;138.594;2022-11-13T00:12:29;99550.42;;;20.41;64.64
53635;BME280;39542;-34.932;138.594;2022-11-13T00:13:04;99547.26;;;20.41;64.62
53635;BME280;39542;-34.932;138.594;2022-11-13T00:13:38;99549.08;;;20.38;64.71
53635;BME280;39542;-34.932;138.594;2022-11-13T00:14:14;99544.94;;;20.45;64.50
53635;BME280;39542;-34.932;138.594;2022-11-13T00:14:48;99543.58;;;20.47;64.54
53635;BME280;39542;-34.932;138.594;2022-11-13T00:15:23;99543.27;;;20.51;64.18
53635;BME280;39542;-34.932;138.594;2022-11-13T00:15:59;99543.28;;;20.59;63.38
53635;BME280;39542;-34.932;138.594;2022-11-13T00:16:35;99543.69;;;20.52;63.97
53635;BME280;39542;-34.932;138.594;2022-11-13T00:17:09;99544.59;;;20.45;64.45
53635;BME280;39542;-34.932;138.594;2022-11-13T00:17:44;99543.70;;;20.48;64.21
53635;BME280;39542;-34.932;138.594;2022-11-13T00:18:19;99543.97;;;20.61;63.70
53635;BME280;39542;-34.932;138.594;2022-11-13T00:18:53;99541.98;;;20.52;63.86
53635;BME280;39542;-34.932;138.594;2022-11-13T00:19:28;99545.80;;;20.49;64.16
53635;BME280;39542;-34.932;138.594;2022-11-13T00:20:02;99544.90;;;20.45;64.16
53635;BME280;39542;-34.932;138.594;2022-11-13T00:20:37;99547.12;;;20.56;63.81
53635;BME280;39542;-34.932;138.594;2022-11-13T00:21:15;99545.31;;;20.53;64.10
53635;BME280;39542;-34.932;138.594;2022-11-13T00:21:50;99541.37;;;20.53;63.88
53635;BME280;39542;-34.932;138.594;2022-11-13T00:22:24;99538.38;;;20.62;63.12
53635;BME280;39542;-34.932;138.594;2022-11-13T00:22:59;99543.11;;;20.58;63.62
53635;BME280;39542;-34.932;138.594;2022-11-13T00:23:34;99541.91;;;20.54;63.82
53635;BME280;39542;-34.932;138.594;2022-11-13T00:24:09;99538.23;;;20.47;64.03
53635;BME280;39542;-34.932;138.594;2022-11-13T00:24:44;99539.25;;;20.39;64.19
53635;BME280;39542;-34.932;138.594;2022-11-13T00:25:19;99537.46;;;20.39;64.23
53635;BME280;39542;-34.932;138.594;2022-11-13T00:25:53;99536.21;;;20.44;64.12
53635;BME280;39542;-34.932;138.594;2022-11-13T00:26:29;99543.43;;;20.43;64.10
53635;BME280;39542;-34.932;138.594;2022-11-13T00:27:03;99536.35;;;20.40;64.20
53635;BME280;39542;-34.932;138.594;2022-11-13T00:27:37;99534.43;;;20.40;64.18
53635;BME280;39542;-34.932;138.594;2022-11-13T00:28:13;99534.47;;;20.37;64.25
53635;BME280;39542;-34.932;138.594;2022-11-13T00:28:50;99533.38;;;20.33;64.34
53635;BME280;39542;-34.932;138.594;2022-11-13T00:29:26;99539.51;;;20.36;64.28
53635;BME280;39542;-34.932;138.594;2022-11-13T00:30:00;99536.75;;;20.31;64.29
53635;BME280;39542;-34.932;138.594;2022-11-13T00:30:35;99534.10;;;20.33;64.22
53635;BME280;39542;-34.932;138.594;2022-11-13T00:31:11;99533.49;;;20.35;64.19
53635;BME280;39542;-34.932;138.594;2022-11-13T00:31:45;99529.42;;;20.34;64.24
53635;BME280;39542;-34.932;138.594;2022-11-13T00:32:19;99530.00;;;20.36;64.15
53635;BME280;39542;-34.932;138.594;2022-11-13T00:32:54;99527.03;;;20.40;63.98
53635;BME280;39542;-34.932;138.594;2022-11-13T00:33:29;99528.76;;;20.40;64.03
53635;BME280;39542;-34.932;138.594;2022-11-13T00:34:03;99529.46;;;20.37;64.12
53635;BME280;39542;-34.932;138.594;2022-11-13T00:34:38;99531.68;;;20.34;64.16
53635;BME280;39542;-34.932;138.594;2022-11-13T00:35:13;99528.36;;;20.37;64.09
53635;BME280;39542;-34.932;138.594;2022-11-13T00:35:47;99525.66;;;20.41;63.95
53635;BME280;39542;-34.932;138.594;2022-11-13T00:36:24;99525.34;;;20.42;63.97
53635;BME280;39542;-34.932;138.594;2022-11-13T00:36:59;99526.92;;;20.37;64.07
53635;BME280;39542;-34.932;138.594;2022-11-13T00:37:33;99525.89;;;20.38;64.02
53635;BME280;39542;-34.932;138.594;2022-11-13T00:38:08;99525.49;;;20.34;64.13
53635;BME280;39542;-34.932;138.594;2022-11-13T00:38:43;99523.43;;;20.31;64.19
53635;BME280;39542;-34.932;138.594;2022-11-13T00:39:17;99527.20;;;20.32;64.14
53635;BME280;39542;-34.932;138.594;2022-11-13T00:39:52;99523.80;;;20.32;64.22
53635;BME280;39542;-34.932;138.594;2022-11-13T00:40:26;99527.61;;;20.35;64.12
53635;BME280;39542;-34.932;138.594;2022-11-13T00:41:01;99527.99;;;20.39;64.01
53635;BME280;39542;-34.932;138.594;2022-11-13T00:41:36;99525.99;;;20.37;64.08
53635;BME280;39542;-34.932;138.594;2022-11-13T00:42:11;99524.32;;;20.36;64.03
53635;BME280;39542;-34.932;138.594;2022-11-13T00:42:45;99524.32;;;20.39;63.98
53635;BME280;39542;-34.932;138.594;2022-11-13T00:43:19;99526.25;;;20.38;64.09
53635;BME280;39542;-34.932;138.594;2022-11-13T00:43:53;99527.47;;;20.36;63.99
53635;BME280;39542;-34.932;138.594;2022-11-13T00:44:28;99526.24;;;20.36;64.01
53635;BME280;39542;-34.932;138.594;2022-11-13T00:45:03;99524.88;;;20.38;63.98
53635;BME280;39542;-34.932;138.594;2022-11-13T00:45:37;99528.68;;;20.42;63.89
53635;BME280;39542;-34.932;138.594;2022-11-13T00:46:11;99525.85;;;20.41;63.92
53635;BME280;39542;-34.932;138.594;2022-11-13T00:46:46;99529.61;;;20.43;63.81
53635;BME280;39542;-34.932;138.594;2022-11-13T00:47:22;99526.21;;;20.48;63.74
53635;BME280;39542;-34.932;138.594;2022-11-13T00:48:00;99527.56;;;20.43;63.83
53635;BME280;39542;-34.932;138.594;2022-11-13T00:48:37;99529.32;;;20.46;63.71
53635;BME280;39542;-34.932;138.594;2022-11-13T00:49:12;99530.41;;;20.46;63.76
53635;BME280;39542;-34.932;138.594;2022-11-13T00:49:47;99526.48;;;20.48;63.67
53635;BME280;39542;-34.932;138.594;2022-11-13T00:50:24;99528.97;;;20.52;63.52
53635;BME280;39542;-34.932;138.594;2022-11-13T00:51:01;99524.72;;;20.55;63.53
53635;BME280;39542;-34.932;138.594;2022-11-13T00:51:37;99526.45;;;20.55;63.52
53635;BME280;39542;-34.932;138.594;2022-11-13T00:52:10;99528.90;;;20.56;63.51
53635;BME280;39542;-34.932;138.594;2022-11-13T00:52:45;99524.85;;;20.54;63.54
53635;BME280;39542;-34.932;138.594;2022-11-13T00:53:20;99525.12;;;20.54;63.51
53635;BME280;39542;-34.932;138.594;2022-11-13T00:53:55;99525.86;;;20.57;63.48
53635;BME280;39542;-34.932;138.594;2022-11-13T00:54:29;99523.08;;;20.57;63.48
53635;BME280;39542;-34.932;138.594;2022-11-13T00:55:05;99525.90;;;20.57;63.44
53635;BME280;39542;-34.932;138.594;2022-11-13T00:55:39;99524.69;;;20.56;63.45
53635;BME280;39542;-34.932;138.594;2022-11-13T00:56:15;99524.05;;;20.55;63.52
53635;BME280;39542;-34.932;138.594;2022-11-13T00:56:49;99523.82;;;20.55;63.52
53635;BME280;39542;-34.932;138.594;2022-11-13T00:57:24;99527.87;;;20.53;63.52
53635;BME280;39542;-34.932;138.594;2022-11-13T00:57:58;99526.37;;;20.51;63.62
53635;BME280;39542;-34.932;138.594;2022-11-13T00:58:32;99526.57;;;20.51;63.60
53635;BME280;39542;-34.932;138.594;2022-11-13T00:59:06;99525.60;;;20.49;63.68
53635;BME280;39542;-34.932;138.594;2022-11-13T00:59:41;99525.19;;;20.47;63.70
53635;BME280;39542;-34.932;138.594;2022-11-13T01:00:16;99524.15;;;20.47;63.70
53635;BME280;39542;-34.932;138.594;2022-11-13T01:00:51;99526.25;;;20.55;63.57
53635;BME280;39542;-34.932;138.594;2022-11-13T01:01:25;99522.84;;;20.53;63.58
53635;BME280;39542;-34.932;138.594;2022-11-13T01:02:00;99527.68;;;20.54;63.56
53635;BME280;39542;-34.932;138.594;2022-11-13T01:02:35;99527.28;;;20.55;63.53
53635;BME280;39542;-34.932;138.594;2022-11-13T01:03:09;99523.22;;;20.60;63.45
53635;BME280;39542;-34.932;138.594;2022-11-13T01:03:44;99519.32;;;20.58;63.46
53635;BME280;39542;-34.932;138.594;2022-11-13T01:04:18;99522.48;;;20.59;63.42
53635;BME280;39542;-34.932;138.594;2022-11-13T01:04:53;99522.84;;;20.59;63.42
53635;BME280;39542;-34.932;138.594;2022-11-13T01:05:28;99526.15;;;20.63;63.34
53635;BME280;39542;-34.932;138.594;2022-11-13T01:06:10;99519.97;;;20.61;63.41
53635;BME280;39542;-34.932;138.594;2022-11-13T01:06:45;99520.99;;;20.63;63.37
53635;BME280;39542;-34.932;138.594;2022-11-13T01:07:19;99518.85;;;20.64;63.36
53635;BME280;39542;-34.932;138.594;2022-11-13T01:07:54;99520.28;;;20.66;63.34
53635;BME280;39542;-34.932;138.594;2022-11-13T01:08:28;99515.24;;;20.64;63.39
53635;BME280;39542;-34.932;138.594;2022-11-13T01:09:04;99515.88;;;20.65;63.40
53635;BME280;39542;-34.932;138.594;2022-11-13T01:09:38;99520.10;;;20.62;63.43
53635;BME280;39542;-34.932;138.594;2022-11-13T01:10:13;99518.28;;;20.62;63.45
53635;BME280;39542;-34.932;138.594;2022-11-13T01:10:49;99524.99;;;20.64;63.45
53635;BME280;39542;-34.932;138.594;2022-11-13T01:11:26;99526.50;;;20.67;63.39
53635;BME280;39542;-34.932;138.594;2022-11-13T01:12:00;99523.45;;;20.64;63.45
53635;BME280;39542;-34.932;138.594;2022-11-13T01:12:35;99524.42;;;20.67;63.35
53635;BME280;39542;-34.932;138.594;2022-11-13T01:13:10;99523.84;;;20.69;63.34
53635;BME280;39542;-34.932;138.594;2022-11-13T01:13:45;99522.01;;;20.71;63.30
53635;BME280;39542;-34.932;138.594;2022-11-13T01:14:20;99522.92;;;20.70;63.26
53635;BME280;39542;-34.932;138.594;2022-11-13T01:14:54;99522.17;;;20.69;63.33
53635;BME280;39542;-34.932;138.594;2022-11-13T01:15:29;99519.35;;;20.73;63.18
53635;BME280;39542;-34.932;138.594;2022-11-13T01:16:07;99520.18;;;20.74;63.20
53635;BME280;39542;-34.932;138.594;2022-11-13T01:16:42;99519.86;;;20.76;63.19
53635;BME280;39542;-34.932;138.594;2022-11-13T01:17:16;99521.14;;;20.78;63.16
53635;BME280;39542;-34.932;138.594;2022-11-13T01:17:50;99521.09;;;20.78;63.14
53635;BME280;39542;-34.932;138.594;2022-11-13T01:18:26;99524.40;;;20.79;63.13
53635;BME280;39542;-34.932;138.594;2022-11-13T01:18:59;99517.17;;;20.78;63.13
53635;BME280;39542;-34.932;138.594;2022-11-13T01:19:34;99521.88;;;20.79;63.14
53635;BME280;39542;-34.932;138.594;2022-11-13T01:20:09;99519.01;;;20.84;63.12
53635;BME280;39542;-34.932;138.594;2022-11-13T01:20:44;99524.76;;;20.85;63.01
53635;BME280;39542;-34.932;138.594;2022-11-13T01:21:21;99523.90;;;20.88;63.00
53635;BME280;39542;-34.932;138.594;2022-11-13T01:21:55;99523.58;;;20.89;62.94
53635;BME280;39542;-34.932;138.594;2022-11-13T01:22:30;99522.37;;;20.91;62.89
53635;BME280;39542;-34.932;138.594;2022-11-13T01:23:04;99519.29;;;20.89;62.88
53635;BME280;39542;-34.932;138.594;2022-11-13T01:23:39;99519.49;;;20.93;62.86
53635;BME280;39542;-34.932;138.594;2022-11-13T01:24:13;99518.48;;;20.95;62.77
53635;BME280;39542;-34.932;138.594;2022-11-13T01:24:48;99517.56;;;20.98;62.75
53635;BME280;39542;-34.932;138.594;2022-11-13T01:25:22;99519.87;;;20.97;62.75
53635;BME280;39542;-34.932;138.594;2022-11-13T01:26:06;99523.06;;;20.94;62.80
53635;BME280;39542;-34.932;138.594;2022-11-13T01:26:40;99519.91;;;20.93;62.84
53635;BME280;39542;-34.932;138.594;2022-11-13T01:27:15;99520.66;;;21.00;62.67
53635;BME280;39542;-34.932;138.594;2022-11-13T01:27:49;99516.45;;;21.02;62.56
53635;BME280;39542;-34.932;138.594;2022-11-13T01:28:24;99516.91;;;21.07;62.53
53635;BME280;39542;-34.932;138.594;2022-11-13T01:28:59;99515.31;;;21.08;62.48
53635;BME280;39542;-34.932;138.594;2022-11-13T01:29:35;99517.14;;;21.07;62.48
53635;BME280;39542;-34.932;138.594;2022-11-13T01:30:11;99516.63;;;21.05;62.55
53635;BME280;39542;-34.932;138.594;2022-11-13T01:30:45;99512.64;;;21.05;62.53
53635;BME280;39542;-34.932;138.594;2022-11-13T01:31:22;99508.77;;;21.06;62.59
53635;BME280;39542;-34.932;138.594;2022-11-13T01:31:56;99510.95;;;21.03;62.55
53635;BME280;39542;-34.932;138.594;2022-11-13T01:32:31;99512.37;;;21.01;62.61
53635;BME280;39542;-34.932;138.594;2022-11-13T01:33:06;99513.71;;;20.98;62.67
53635;BME280;39542;-34.932;138.594;2022-11-13T01:33:40;99513.62;;;21.02;62.64
53635;BME280;39542;-34.932;138.594;2022-11-13T01:34:15;99511.84;;;20.98;62.71
53635;BME280;39542;-34.932;138.594;2022-11-13T01:34:49;99513.04;;;21.01;62.68
53635;BME280;39542;-34.932;138.594;2022-11-13T01:35:24;99517.65;;;20.99;62.73
53635;BME280;39542;-34.932;138.594;2022-11-13T01:36:02;99516.60;;;20.98;62.70
53635;BME280;39542;-34.932;138.594;2022-11-13T01:36:38;99515.75;;;20.99;62.73
53635;BME280;39542;-34.932;138.594;2022-11-13T01:37:13;99512.21;;;20.99;62.72
53635;BME280;39542;-34.932;138.594;2022-11-13T01:37:47;99514.09;;;21.01;62.69
53635;BME280;39542;-34.932;138.594;2022-11-13T01:38:21;99511.40;;;21.03;62.64
53635;BME280;39542;-34.932;138.594;2022-11-13T01:38:56;99512.02;;;21.03;62.64
53635;BME280;39542;-34.932;138.594;2022-11-13T01:39:31;99514.26;;;20.99;62.72
53635;BME280;39542;-34.932;138.594;2022-11-13T01:40:08;99511.53;;;20.98;62.77
53635;BME280;39542;-34.932;138.594;2022-11-13T01:40:46;99511.80;;;21.00;62.69
53635;BME280;39542;-34.932;138.594;2022-11-13T01:41:23;99509.54;;;21.03;62.65
53635;BME280;39542;-34.932;138.594;2022-11-13T01:41:59;99510.18;;;21.08;62.56
53635;BME280;39542;-34.932;138.594;2022-11-13T01:42:33;99511.01;;;21.09;62.55
53635;BME280;39542;-34.932;138.594;2022-11-13T01:43:23;99509.15;;;21.13;62.42
53635;BME280;39542;-34.932;138.594;2022-11-13T01:43:59;99505.23;;;21.10;62.52
53635;BME280;39542;-34.932;138.594;2022-11-13T01:44:48;99503.71;;;21.09;62.55
53635;BME280;39542;-34.932;138.594;2022-11-13T01:46:31;99503.33;;;21.07;62.53
53635;BME280;39542;-34.932;138.594;2022-11-13T01:47:06;99502.98;;;21.14;62.39
53635;BME280;39542;-34.932;138.594;2022-11-13T01:47:41;99502.20;;;21.18;62.28
53635;BME280;39542;-34.932;138.594;2022-11-13T01:48:16;99502.03;;;21.23;62.10
53635;BME280;39542;-34.932;138.594;2022-11-13T01:48:55;99501.03;;;21.28;61.82
53635;BME280;39542;-34.932;138.594;2022-11-13T01:49:33;99503.88;;;21.30;61.89
53635;BME280;39542;-34.932;138.594;2022-11-13T01:50:13;99505.54;;;21.22;61.76
53635;BME280;39542;-34.932;138.594;2022-11-13T01:50:47;99505.58;;;21.17;61.90
53635;BME280;39542;-34.932;138.594;2022-11-13T01:51:27;99505.22;;;21.13;62.01
53635;BME280;39542;-34.932;138.594;2022-11-13T01:52:04;99507.27;;;21.17;61.90
53635;BME280;39542;-34.932;138.594;2022-11-13T01:52:41;99504.55;;;21.23;61.50
53635;BME280;39542;-34.932;138.594;2022-11-13T01:53:16;99501.68;;;21.19;61.80
53635;BME280;39542;-34.932;138.594;2022-11-13T01:53:50;99499.44;;;21.17;61.72
53635;BME280;39542;-34.932;138.594;2022-11-13T01:54:28;99495.35;;;21.20;61.53
53635;BME280;39542;-34.932;138.594;2022-11-13T01:55:06;99500.16;;;21.27;61.22
53635;BME280;39542;-34.932;138.594;2022-11-13T01:55:42;99499.99;;;21.31;61.27
53635;BME280;39542;-34.932;138.594;2022-11-13T01:56:17;99496.63;;;21.28;61.31
53635;BME280;39542;-34.932;138.594;2022-11-13T01:56:53;99493.51;;;21.28;61.35
53635;BME280;39542;-34.932;138.594;2022-11-13T01:57:28;99497.16;;;21.23;61.36
53635;BME280;39542;-34.932;138.594;2022-11-13T01:58:03;99494.68;;;21.28;61.22
53635;BME280;39542;-34.932;138.594;2022-11-13T01:59:43;99492.28;;;21.38;60.89
53635;BME280;39542;-34.932;138.594;2022-11-13T02:00:19;99491.15;;;21.33;61.06
53635;BME280;39542;-34.932;138.594;2022-11-13T02:00:54;99492.67;;;21.32;61.12
53635;BME280;39542;-34.932;138.594;2022-11-13T02:01:28;99489.85;;;21.30;60.94
53635;BME280;39542;-34.932;138.594;2022-11-13T02:02:03;99489.58;;;21.29;61.09
53635;BME280;39542;-34.932;138.594;2022-11-13T02:02:37;99489.98;;;21.23;61.22
53635;BME280;39542;-34.932;138.594;2022-11-13T02:03:11;99490.21;;;21.22;61.33
53635;BME280;39542;-34.932;138.594;2022-11-13T02:03:47;99489.91;;;21.22;61.33
53635;BME280;39542;-34.932;138.594;2022-11-13T02:04:22;99486.89;;;21.26;61.30
53635;BME280;39542;-34.932;138.594;2022-11-13T02:04:56;99482.76;;;21.25;61.33
53635;BME280;39542;-34.932;138.594;2022-11-13T02:05:30;99478.87;;;21.33;61.22
53635;BME280;39542;-34.932;138.594;2022-11-13T02:06:05;99478.50;;;21.35;61.23
53635;BME280;39542;-34.932;138.594;2022-11-13T02:06:45;99473.96;;;21.43;61.07
53635;BME280;39542;-34.932;138.594;2022-11-13T02:07:23;99475.30;;;21.39;61.25
53635;BME280;39542;-34.932;138.594;2022-11-13T02:07:58;99471.10;;;21.36;61.07
53635;BME280;39542;-34.932;138.594;2022-11-13T02:08:32;99473.63;;;21.39;59.88
53635;BME280;39542;-34.932;138.594;2022-11-13T02:09:08;99474.89;;;21.36;60.39
53635;BME280;39542;-34.932;138.594;2022-11-13T02:09:45;99476.84;;;21.31;61.21
53635;BME280;39542;-34.932;138.594;2022-11-13T02:10:19;99474.33;;;21.32;61.07
53635;BME280;39542;-34.932;138.594;2022-11-13T02:10:54;99474.87;;;21.29;61.05
53635;BME280;39542;-34.932;138.594;2022-11-13T02:11:28;99469.19;;;21.35;60.91
53635;BME280;39542;-34.932;138.594;2022-11-13T02:12:06;99472.80;;;21.32;60.97
53635;BME280;39542;-34.932;138.594;2022-11-13T02:12:44;99467.08;;;21.37;60.76
53635;BME280;39542;-34.932;138.594;2022-11-13T02:13:21;99469.64;;;21.42;60.73
53635;BME280;39542;-34.932;138.594;2022-11-13T02:13:57;99466.64;;;21.45;60.46
53635;BME280;39542;-34.932;138.594;2022-11-13T02:14:32;99466.69;;;21.48;60.23
53635;BME280;39542;-34.932;138.594;2022-11-13T02:15:08;99465.71;;;21.46;60.41
53635;BME280;39542;-34.932;138.594;2022-11-13T02:15:43;99467.22;;;21.44;60.49
53635;BME280;39542;-34.932;138.594;2022-11-13T02:16:19;99466.92;;;21.46;60.48
53635;BME280;39542;-34.932;138.594;2022-11-13T02:16:58;99468.05;;;21.49;60.45
53635;BME280;39542;-34.932;138.594;2022-11-13T02:17:39;99464.19;;;21.54;60.37
53635;BME280;39542;-34.932;138.594;2022-11-13T02:18:15;99472.52;;;21.51;60.39
53635;BME280;39542;-34.932;138.594;2022-11-13T02:18:52;99468.75;;;21.50;60.29
53635;BME280;39542;-34.932;138.594;2022-11-13T02:19:29;99467.88;;;21.54;59.96
53635;BME280;39542;-34.932;138.594;2022-11-13T02:20:08;99473.50;;;21.52;60.27
53635;BME280;39542;-34.932;138.594;2022-11-13T02:20:49;99467.73;;;21.56;60.03
53635;BME280;39542;-34.932;138.594;2022-11-13T02:21:31;99468.59;;;21.53;60.04
53635;BME280;39542;-34.932;138.594;2022-11-13T02:22:15;99466.22;;;21.49;60.12
53635;BME280;39542;-34.932;138.594;2022-11-13T02:22:59;99464.99;;;21.53;60.05
53635;BME280;39542;-34.932;138.594;2022-11-13T02:23:42;99462.57;;;21.47;59.96
53635;BME280;39542;-34.932;138.594;2022-11-13T02:24:25;99460.67;;;21.49;59.98
53635;BME280;39542;-34.932;138.594;2022-11-13T02:25:03;99457.30;;;21.51;59.82
53635;BME280;39542;-34.932;138.594;2022-11-13T02:25:38;99460.89;;;21.51;59.99
53635;BME280;39542;-34.932;138.594;2022-11-13T02:26:14;99457.13;;;21.57;59.92
53635;BME280;39542;-34.932;138.594;2022-11-13T02:26:50;99452.62;;;21.60;59.93
53635;BME280;39542;-34.932;138.594;2022-11-13T02:27:31;99454.19;;;21.55;59.73
53635;BME280;39542;-34.932;138.594;2022-11-13T02:28:07;99459.15;;;21.47;59.67
53635;BME280;39542;-34.932;138.594;2022-11-13T02:28:41;99450.39;;;21.52;60.40
53635;BME280;39542;-34.932;138.594;2022-11-13T02:29:16;99448.73;;;21.48;60.35
53635;BME280;39542;-34.932;138.594;2022-11-13T02:29:50;99450.67;;;21.49;60.22
53635;BME280;39542;-34.932;138.594;2022-11-13T02:30:26;99452.80;;;21.47;60.02
53635;BME280;39542;-34.932;138.594;2022-11-13T02:31:09;99452.31;;;21.45;60.12
53635;BME280;39542;-34.932;138.594;2022-11-13T02:31:44;99451.49;;;21.53;60.10
53635;BME280;39542;-34.932;138.594;2022-11-13T02:32:18;99453.83;;;21.48;59.76
53635;BME280;39542;-34.932;138.594;2022-11-13T02:32:55;99456.95;;;21.54;59.66
53635;BME280;39542;-34.932;138.594;2022-11-13T02:33:31;99461.43;;;21.61;59.55
53635;BME280;39542;-34.932;138.594;2022-11-13T02:34:06;99459.41;;;21.60;59.64
53635;BME280;39542;-34.932;138.594;2022-11-13T02:34:41;99460.69;;;21.62;59.85
53635;BME280;39542;-34.932;138.594;2022-11-13T02:35:18;99461.85;;;21.62;59.90
53635;BME280;39542;-34.932;138.594;2022-11-13T02:35:54;99459.64;;;21.70;59.65
53635;BME280;39542;-34.932;138.594;2022-11-13T02:36:29;99460.14;;;21.75;59.73
53635;BME280;39542;-34.932;138.594;2022-11-13T02:37:04;99461.65;;;21.76;59.75
53635;BME280;39542;-34.932;138.594;2022-11-13T02:37:38;99459.99;;;21.77;59.57
53635;BME280;39542;-34.932;138.594;2022-11-13T02:38:14;99459.29;;;21.79;59.48
53635;BME280;39542;-34.932;138.594;2022-11-13T02:38:49;99454.31;;;21.85;59.39
53635;BME280;39542;-34.932;138.594;2022-11-13T02:39:25;99455.98;;;21.83;59.42
53635;BME280;39542;-34.932;138.594;2022-11-13T02:40:00;99452.20;;;21.83;59.46
53635;BME280;39542;-34.932;138.594;2022-11-13T02:40:34;99452.47;;;21.85;59.44
53635;BME280;39542;-34.932;138.594;2022-11-13T02:41:08;99450.08;;;21.85;59.47
53635;BME280;39542;-34.932;138.594;2022-11-13T02:41:43;99447.53;;;21.80;59.62
53635;BME280;39542;-34.932;138.594;2022-11-13T02:42:18;99446.09;;;21.80;59.61
53635;BME280;39542;-34.932;138.594;2022-11-13T02:42:54;99445.53;;;21.78;59.77
53635;BME280;39542;-34.932;138.594;2022-11-13T02:43:28;99445.37;;;21.76;59.65
53635;BME280;39542;-34.932;138.594;2022-11-13T02:44:03;99445.56;;;21.73;59.83
53635;BME280;39542;-34.932;138.594;2022-11-13T02:44:37;99441.52;;;21.73;59.84
53635;BME280;39542;-34.932;138.594;2022-11-13T02:45:12;99445.21;;;21.73;59.86
53635;BME280;39542;-34.932;138.594;2022-11-13T02:45:46;99449.73;;;21.73;59.78
53635;BME280;39542;-34.932;138.594;2022-11-13T02:46:20;99444.29;;;21.74;59.71
53635;BME280;39542;-34.932;138.594;2022-11-13T02:46:54;99441.60;;;21.72;59.62
53635;BME280;39542;-34.932;138.594;2022-11-13T02:47:29;99445.70;;;21.75;59.67
53635;BME280;39542;-34.932;138.594;2022-11-13T02:48:05;99446.46;;;21.82;59.55
53635;BME280;39542;-34.932;138.594;2022-11-13T02:48:40;99441.20;;;21.84;59.66
53635;BME280;39542;-34.932;138.594;2022-11-13T02:49:14;99442.54;;;21.89;59.54
53635;BME280;39542;-34.932;138.594;2022-11-13T02:49:49;99447.59;;;21.86;59.67
53635;BME280;39542;-34.932;138.594;2022-11-13T02:50:24;99436.69;;;21.88;59.74
53635;BME280;39542;-34.932;138.594;2022-11-13T02:50:58;99440.81;;;21.95;59.55
53635;BME280;39542;-34.932;138.594;2022-11-13T02:51:32;99442.18;;;21.94;59.66
53635;BME280;39542;-34.932;138.594;2022-11-13T02:52:06;99443.87;;;21.91;59.58
53635;BME280;39542;-34.932;138.594;2022-11-13T02:52:41;99446.39;;;21.82;59.78
53635;BME280;39542;-34.932;138.594;2022-11-13T02:53:16;99446.76;;;21.83;59.66
53635;BME280;39542;-34.932;138.594;2022-11-13T02:53:50;99442.24;;;21.83;59.70
53635;BME280;39542;-34.932;138.594;2022-11-13T02:54:25;99443.83;;;21.89;59.60
53635;BME280;39542;-34.932;138.594;2022-11-13T02:55:00;99443.75;;;21.85;59.63
53635;BME280;39542;-34.932;138.594;2022-11-13T02:55:34;99442.50;;;21.88;59.42
53635;BME280;39542;-34.932;138.594;2022-11-13T02:56:09;99438.45;;;21.88;59.50
53635;BME280;39542;-34.932;138.594;2022-11-13T02:56:44;99442.44;;;21.79;59.75
53635;BME280;39542;-34.932;138.594;2022-11-13T02:57:18;99443.24;;;21.85;59.93
53635;BME280;39542;-34.932;138.594;2022-11-13T02:57:53;99442.50;;;21.82;60.16
53635;BME280;39542;-34.932;138.594;2022-11-13T02:58:28;99444.38;;;21.82;60.10
53635;BME280;39542;-34.932;138.594;2022-11-13T02:59:03;99444.32;;;21.87;60.12
53635;BME280;39542;-34.932;138.594;2022-11-13T02:59:37;99439.75;;;21.95;60.04
53635;BME280;39542;-34.932;138.594;2022-11-13T03:00:12;99438.10;;;21.95;60.17
53635;BME280;39542;-34.932;138.594;2022-11-13T03:00:46;99437.46;;;21.96;60.12
53635;BME280;39542;-34.932;138.594;2022-11-13T03:01:21;99437.16;;;21.96;59.75
53635;BME280;39542;-34.932;138.594;2022-11-13T03:01:56;99435.23;;;21.93;59.88
53635;BME280;39542;-34.932;138.594;2022-11-13T03:02:30;99437.94;;;21.95;59.76
53635;BME280;39542;-34.932;138.594;2022-11-13T03:03:05;99437.16;;;21.96;59.73